Time;durP1;ratioP1;P1;durP2;ratioP2;P2;SDS_P1;SDS_P2;PMS_P1;PMS_P2;Temp;Humidity;BMP_temperature;BMP_pressure;BME280_temperature;BME280_humidity;BME280_pressure;Samples;Min_cycle;Max_cycle;Signal;HPM_P1;HPM_P2
2022/02/15 00:02:02;;;;;;;9.35;2.22;;;8.50;99.90;;;;;;4976962;28;20240;-89
2022/02/15 00:04:28;;;;;;;11.13;2.30;;;8.40;99.90;;;;;;4976400;28;20190;-81
2022/02/15 00:06:53;;;;;;;2.15;1.95;;;8.30;99.90;;;;;;4977364;28;20173;-90
2022/02/15 00:09:19;;;;;;;3.67;2.28;;;8.40;99.90;;;;;;4983808;28;20165;-80
2022/02/15 00:11:45;;;;;;;4.20;2.08;;;8.30;99.90;;;;;;4998577;28;20254;-77
2022/02/15 00:14:10;;;;;;;13.25;2.53;;;8.30;99.90;;;;;;4999689;28;20221;-77
2022/02/15 00:16:36;;;;;;;7.80;2.53;;;8.50;99.90;;;;;;4999677;28;20173;-85
2022/02/15 00:19:02;;;;;;;6.47;2.72;;;8.60;99.90;;;;;;5000473;28;20173;-79
2022/02/15 00:21:27;;;;;;;8.60;3.00;;;8.70;99.90;;;;;;4984400;28;20213;-89
2022/02/15 00:23:53;;;;;;;10.93;3.03;;;8.70;99.90;;;;;;4980740;28;20196;-89
2022/02/15 00:26:19;;;;;;;5.38;2.30;;;8.80;99.90;;;;;;4958211;28;20190;-78
2022/02/15 00:28:44;;;;;;;5.22;2.67;;;8.70;99.90;;;;;;4958547;28;20185;-89
2022/02/15 00:31:10;;;;;;;7.25;2.90;;;8.60;99.90;;;;;;4975471;28;20166;-89
2022/02/15 00:33:37;;;;;;;3.97;2.55;;;8.60;99.90;;;;;;4975262;28;20595;-89
2022/02/15 00:36:02;;;;;;;3.17;2.47;;;8.70;99.90;;;;;;4976259;28;20180;-90
2022/02/15 00:38:28;;;;;;;4.55;2.53;;;8.70;99.90;;;;;;4975408;28;20170;-79
2022/02/15 00:40:54;;;;;;;10.30;3.00;;;8.70;99.90;;;;;;4975321;28;20210;-79
2022/02/15 00:43:19;;;;;;;11.55;2.80;;;8.90;99.90;;;;;;4957970;28;20193;-90
2022/02/15 00:45:45;;;;;;;6.35;2.85;;;9.00;99.90;;;;;;4975307;28;20176;-90
2022/02/15 00:48:10;;;;;;;5.65;2.53;;;8.90;99.90;;;;;;4975041;28;20170;-91
2022/02/15 00:50:36;;;;;;;4.47;2.30;;;8.50;99.90;;;;;;4975148;28;20583;-90
2022/02/15 00:53:02;;;;;;;6.63;2.33;;;8.70;99.90;;;;;;4974976;28;20281;-81
2022/02/15 00:55:27;;;;;;;8.77;2.67;;;8.70;99.90;;;;;;4974909;28;20257;-87
2022/02/15 00:57:53;;;;;;;3.55;2.42;;;8.60;99.90;;;;;;4974389;28;20224;-83
2022/02/15 01:00:19;;;;;;;6.00;2.50;;;8.60;99.90;;;;;;4974408;28;20722;-90
2022/02/15 01:02:45;;;;;;;6.32;2.60;;;8.70;99.90;;;;;;4975298;28;20178;-88
2022/02/15 01:05:11;;;;;;;14.45;3.35;;;8.70;99.90;;;;;;4957439;28;20172;-78
2022/02/15 01:07:37;;;;;;;10.50;2.50;;;8.80;99.90;;;;;;4957780;28;20170;-85
2022/02/15 01:10:04;;;;;;;5.68;3.17;;;8.80;99.90;;;;;;4974340;28;20567;-88
2022/02/15 01:12:30;;;;;;;5.40;3.13;;;8.80;99.90;;;;;;4975211;28;20512;-88
2022/02/15 01:14:55;;;;;;;5.35;2.90;;;8.90;99.90;;;;;;4975101;28;20660;-89
2022/02/15 01:17:21;;;;;;;5.85;2.55;;;8.70;99.90;;;;;;4973170;28;20726;-80
2022/02/15 01:19:47;;;;;;;6.07;2.95;;;8.80;99.90;;;;;;4974149;28;20511;-82
2022/02/15 01:22:12;;;;;;;5.30;3.22;;;8.90;99.90;;;;;;4973923;28;20308;-80
2022/02/15 01:24:38;;;;;;;4.00;2.65;;;8.70;99.90;;;;;;4973915;28;20189;-78
2022/02/15 01:27:08;;;;;;;3.78;2.67;;;8.90;99.90;;;;;;4956861;28;20225;-78
2022/02/15 01:29:33;;;;;;;6.82;3.20;;;8.80;99.90;;;;;;4956150;28;20240;-89
2022/02/15 01:31:59;;;;;;;11.07;2.65;;;8.80;99.90;;;;;;4974137;28;20182;-78
2022/02/15 01:34:24;;;;;;;5.20;2.50;;;8.70;99.90;;;;;;4972506;28;20220;-79
2022/02/15 01:36:51;;;;;;;13.88;2.78;;;8.80;99.90;;;;;;4973654;28;20173;-81
2022/02/15 01:39:16;;;;;;;5.15;2.90;;;8.70;99.90;;;;;;4973796;28;20173;-79
2022/02/15 01:41:43;;;;;;;6.38;2.88;;;8.70;99.90;;;;;;4976339;28;20206;-82
2022/02/15 01:44:08;;;;;;;6.72;3.60;;;8.80;99.90;;;;;;4977499;28;20265;-79
2022/02/15 01:46:36;;;;;;;8.65;2.75;;;8.80;99.90;;;;;;4977904;28;20257;-80
2022/02/15 01:49:02;;;;;;;9.18;3.10;;;8.80;99.90;;;;;;4960792;28;20197;-79
2022/02/15 01:51:27;;;;;;;8.80;3.03;;;8.80;99.90;;;;;;4978156;28;20646;-82
2022/02/15 01:53:53;;;;;;;5.35;3.03;;;8.70;99.90;;;;;;4977521;28;20193;-79
2022/02/15 01:56:19;;;;;;;11.32;3.55;;;8.70;99.90;;;;;;4977734;28;20278;-87
2022/02/15 01:58:45;;;;;;;7.80;3.97;;;8.70;99.90;;;;;;4977632;28;20169;-79
2022/02/15 02:01:11;;;;;;;3.90;3.08;;;8.60;99.90;;;;;;4977714;28;20213;-80
2022/02/15 02:03:36;;;;;;;7.22;3.15;;;8.70;99.90;;;;;;4977520;28;20188;-88
2022/02/15 02:06:02;;;;;;;6.53;3.38;;;8.80;99.90;;;;;;4977232;28;20244;-78
2022/02/15 02:08:31;;;;;;;11.70;3.20;;;8.90;99.90;;;;;;4977704;28;20649;-82
2022/02/15 02:10:57;;;;;;;10.55;3.55;;;8.80;99.90;;;;;;4977424;28;20518;-78
2022/02/15 02:13:23;;;;;;;12.48;3.85;;;9.00;99.90;;;;;;4977373;28;20186;-79
2022/02/15 02:15:49;;;;;;;9.20;3.45;;;8.80;99.90;;;;;;4977159;28;20564;-78
2022/02/15 02:18:16;;;;;;;6.28;3.40;;;8.80;99.90;;;;;;4976801;28;20181;-78
2022/02/15 02:20:42;;;;;;;12.35;3.90;;;8.60;99.90;;;;;;4976958;28;20205;-82
2022/02/15 02:23:19;;;;;;;6.15;3.60;;;8.70;99.90;;;;;;4977298;28;20268;-78
2022/02/15 02:25:44;;;;;;;7.20;3.63;;;8.70;99.90;;;;;;4976762;28;20177;-78
2022/02/15 02:28:10;;;;;;;8.52;4.03;;;8.80;99.90;;;;;;4976713;28;20245;-79
2022/02/15 02:30:37;;;;;;;4.97;4.13;;;8.90;99.90;;;;;;4976621;28;20193;-78
2022/02/15 02:33:03;;;;;;;8.57;3.95;;;8.60;99.90;;;;;;4976551;28;20186;-79
2022/02/15 02:35:29;;;;;;;9.23;4.55;;;8.70;99.90;;;;;;4976499;28;20224;-84
2022/02/15 02:37:54;;;;;;;11.40;4.75;;;8.70;99.90;;;;;;4976836;28;20162;-82
2022/02/15 02:40:20;;;;;;;9.60;3.67;;;8.60;99.90;;;;;;4977099;28;20197;-79
2022/02/15 02:42:46;;;;;;;6.53;3.97;;;8.60;99.90;;;;;;4978235;28;20170;-77
2022/02/15 02:45:14;;;;;;;9.55;4.30;;;8.70;99.90;;;;;;4987606;28;20162;-76
2022/02/15 02:47:45;;;;;;;20.88;5.32;;;8.70;99.90;;;;;;4996342;28;20178;-77
2022/02/15 02:50:12;;;;;;;5.82;4.03;;;8.80;99.90;;;;;;4994982;28;20192;-81
2022/02/15 02:52:38;;;;;;;6.93;4.85;;;8.70;99.90;;;;;;4977955;28;20233;-82
2022/02/15 02:55:06;;;;;;;10.50;5.68;;;8.60;99.90;;;;;;4979306;28;20174;-78
2022/02/15 02:57:35;;;;;;;11.48;4.93;;;8.80;99.90;;;;;;4979996;28;20253;-84
2022/02/15 03:00:03;;;;;;;4.05;3.25;;;8.70;99.90;;;;;;4979414;28;20170;-79
2022/02/15 03:02:29;;;;;;;6.10;4.30;;;8.70;99.90;;;;;;4977517;28;20177;-79
2022/02/15 03:04:54;;;;;;;8.73;4.03;;;8.70;99.90;;;;;;4978199;28;20193;-87
2022/02/15 03:07:20;;;;;;;10.88;4.22;;;8.60;99.90;;;;;;4960798;28;20554;-83
2022/02/15 03:09:45;;;;;;;9.77;5.47;;;8.60;99.90;;;;;;4961814;28;20180;-90
2022/02/15 03:12:12;;;;;;;6.22;4.22;;;8.60;99.90;;;;;;4962337;28;20209;-88
2022/02/15 03:14:38;;;;;;;8.63;4.40;;;8.80;99.90;;;;;;4979395;28;20185;-77
2022/02/15 03:17:04;;;;;;;9.35;5.55;;;8.70;99.90;;;;;;4961558;28;20192;-78
2022/02/15 03:19:29;;;;;;;7.65;5.13;;;8.70;99.90;;;;;;4980993;28;20197;-78
2022/02/15 03:21:55;;;;;;;7.38;5.60;;;8.40;99.90;;;;;;4980180;28;20228;-82
2022/02/15 03:24:21;;;;;;;12.15;5.47;;;8.50;99.90;;;;;;4981092;28;20232;-78
2022/02/15 03:26:46;;;;;;;8.20;4.95;;;8.50;99.90;;;;;;4979449;28;20166;-84
2022/02/15 03:29:12;;;;;;;4.82;4.15;;;8.40;99.90;;;;;;4977524;28;20184;-78
2022/02/15 03:31:40;;;;;;;10.48;5.15;;;8.40;99.90;;;;;;4976646;28;20183;-87
2022/02/15 03:34:05;;;;;;;7.38;5.20;;;8.60;99.90;;;;;;4960857;28;20212;-82
2022/02/15 03:36:31;;;;;;;7.10;5.38;;;8.60;99.90;;;;;;4978443;28;20225;-77
2022/02/15 03:38:57;;;;;;;14.23;5.38;;;8.50;99.90;;;;;;4959602;28;20176;-90
2022/02/15 03:44:07;;;;;;;9.38;4.65;;;8.50;99.90;;;;;;4980406;28;20260;-79
2022/02/15 03:46:32;;;;;;;7.63;4.68;;;8.60;99.90;;;;;;4980098;28;20182;-81
2022/02/15 03:48:58;;;;;;;7.05;5.00;;;8.70;99.90;;;;;;4962377;28;20221;-85
2022/02/15 03:51:24;;;;;;;6.43;4.43;;;8.80;99.90;;;;;;4962894;28;20182;-85
2022/02/15 03:53:49;;;;;;;14.02;6.45;;;8.80;99.90;;;;;;4978902;28;20547;-87
2022/02/15 03:56:15;;;;;;;6.15;4.85;;;8.70;99.90;;;;;;4978727;28;20281;-81
2022/02/15 03:58:46;;;;;;;10.25;5.40;;;8.70;99.90;;;;;;4963510;28;20192;-78
2022/02/15 04:01:29;;;;;;;11.68;5.43;;;8.80;99.90;;;;;;4968739;28;20231;-79
2022/02/15 04:03:54;;;;;;;8.50;4.90;;;8.90;99.90;;;;;;4983633;28;20241;-82
2022/02/15 04:06:20;;;;;;;8.38;4.40;;;8.70;99.90;;;;;;4962570;28;20186;-77
2022/02/15 04:08:45;;;;;;;10.85;4.93;;;8.70;99.90;;;;;;4979085;28;20173;-77
2022/02/15 04:11:12;;;;;;;6.65;3.85;;;8.70;99.90;;;;;;4979569;28;20193;-76
2022/02/15 04:13:38;;;;;;;11.10;4.45;;;8.70;99.90;;;;;;4960288;28;20204;-81
2022/02/15 04:16:05;;;;;;;7.90;4.20;;;8.60;99.90;;;;;;4977835;28;20181;-78
2022/02/15 04:18:32;;;;;;;8.18;5.32;;;8.70;99.90;;;;;;4977052;28;20694;-76
2022/02/15 04:20:57;;;;;;;9.65;4.40;;;8.70;99.90;;;;;;4976072;28;20210;-77
2022/02/15 04:23:23;;;;;;;7.88;3.92;;;8.70;99.90;;;;;;4975882;28;20212;-81
2022/02/15 04:25:48;;;;;;;7.88;4.90;;;8.70;99.90;;;;;;4976586;28;20174;-77
2022/02/15 04:28:14;;;;;;;8.35;4.30;;;8.60;99.90;;;;;;4978979;28;20178;-77
2022/02/15 04:30:40;;;;;;;6.85;4.55;;;8.40;99.90;;;;;;4978549;28;20178;-78
2022/02/15 04:33:07;;;;;;;6.80;4.95;;;8.60;99.90;;;;;;4978844;28;20268;-84
2022/02/15 04:35:34;;;;;;;10.82;4.03;;;8.60;99.90;;;;;;4980430;28;20170;-77
2022/02/15 04:38:01;;;;;;;6.43;4.63;;;8.70;99.90;;;;;;4975544;28;20178;-80
2022/02/15 04:40:27;;;;;;;6.45;4.13;;;8.60;99.90;;;;;;4991424;28;20217;-77
2022/02/15 04:42:53;;;;;;;6.45;4.28;;;8.40;99.90;;;;;;4991527;28;20178;-80
2022/02/15 04:45:18;;;;;;;10.02;4.00;;;8.50;99.90;;;;;;4986015;28;20162;-78
2022/02/15 04:47:44;;;;;;;7.85;4.25;;;8.50;99.90;;;;;;4978070;28;20177;-77
2022/02/15 04:50:12;;;;;;;7.18;4.72;;;8.50;99.90;;;;;;4980479;28;20159;-79
2022/02/15 04:52:38;;;;;;;10.98;4.97;;;8.30;99.90;;;;;;4977946;28;20182;-81
2022/02/15 04:55:05;;;;;;;11.63;4.63;;;8.40;99.90;;;;;;4981399;28;20769;-78
2022/02/15 04:57:31;;;;;;;10.73;4.07;;;8.50;99.90;;;;;;4978140;28;20651;-78
2022/02/15 04:59:56;;;;;;;5.30;3.78;;;8.50;99.90;;;;;;4979801;28;20189;-78
2022/02/15 05:02:23;;;;;;;15.18;4.90;;;8.30;99.90;;;;;;4981583;28;20196;-78
2022/02/15 05:04:49;;;;;;;8.23;4.43;;;8.40;99.90;;;;;;4988583;28;20533;-77
2022/02/15 05:09:40;;;;;;;5.95;3.88;;;8.60;99.90;;;;;;4968038;28;20643;-83
2022/02/15 05:12:06;;;;;;;12.10;4.63;;;8.50;99.90;;;;;;4987254;28;20170;-85
2022/02/15 05:14:33;;;;;;;6.95;3.53;;;8.60;99.90;;;;;;4982713;28;20170;-77
2022/02/15 05:16:58;;;;;;;7.30;4.70;;;8.60;99.90;;;;;;4986749;28;20169;-90
2022/02/15 05:19:24;;;;;;;7.22;3.80;;;8.70;99.90;;;;;;4985820;28;20528;-91
2022/02/15 05:21:51;;;;;;;14.57;4.40;;;8.50;99.90;;;;;;4992203;28;20213;-78
2022/02/15 05:24:16;;;;;;;4.07;3.65;;;8.40;99.90;;;;;;4994824;28;20239;-82
2022/02/15 05:26:42;;;;;;;6.80;3.45;;;8.40;99.90;;;;;;5001206;28;20194;-83
2022/02/15 05:29:08;;;;;;;7.00;3.20;;;8.40;99.90;;;;;;4974099;28;20216;-77
2022/02/15 05:31:33;;;;;;;6.53;4.18;;;8.50;99.90;;;;;;4985431;28;20150;-77
2022/02/15 05:33:59;;;;;;;7.57;3.45;;;8.50;99.90;;;;;;4966670;28;20193;-77
2022/02/15 05:36:25;;;;;;;8.27;3.92;;;8.30;99.90;;;;;;4989324;28;20197;-78
2022/02/15 05:38:51;;;;;;;11.02;3.75;;;8.40;99.90;;;;;;4983163;28;20200;-76
2022/02/15 05:41:16;;;;;;;7.10;3.88;;;8.50;99.90;;;;;;4983879;28;20268;-78
2022/02/15 05:43:43;;;;;;;11.05;4.43;;;8.60;99.90;;;;;;4969686;28;20190;-77
2022/02/15 05:46:09;;;;;;;7.78;4.45;;;8.50;99.90;;;;;;4985370;28;20186;-77
2022/02/15 05:48:35;;;;;;;5.57;3.45;;;8.40;99.90;;;;;;4986164;28;20607;-77
2022/02/15 05:51:00;;;;;;;8.75;3.80;;;8.40;99.90;;;;;;4986830;28;20194;-83
2022/02/15 05:53:29;;;;;;;3.45;2.85;;;8.30;99.90;;;;;;4983130;28;20186;-77
2022/02/15 05:55:58;;;;;;;7.35;4.03;;;8.30;99.90;;;;;;4950773;28;20651;-86
2022/02/15 05:58:24;;;;;;;7.97;3.58;;;8.30;99.90;;;;;;4983349;28;20165;-89
2022/02/15 06:00:50;;;;;;;12.77;3.88;;;8.20;99.90;;;;;;4983563;28;20197;-78
2022/02/15 06:06:01;;;;;;;3.33;2.45;;;8.20;99.90;;;;;;4985772;28;20530;-83
2022/02/15 06:08:27;;;;;;;13.07;3.50;;;8.40;99.90;;;;;;4980275;28;20620;-80
2022/02/15 06:10:56;;;;;;;5.20;4.13;;;8.50;99.90;;;;;;4986094;28;20162;-77
2022/02/15 06:13:23;;;;;;;4.55;3.15;;;8.40;99.90;;;;;;4969118;28;20201;-76
2022/02/15 06:15:51;;;;;;;9.80;3.47;;;8.40;99.90;;;;;;4980769;28;20173;-78
2022/02/15 06:18:20;;;;;;;8.77;3.40;;;8.60;99.90;;;;;;4990181;28;20182;-85
2022/02/15 06:20:45;;;;;;;6.10;3.22;;;8.60;99.90;;;;;;4979795;28;20197;-77
2022/02/15 06:23:11;;;;;;;7.65;2.58;;;8.20;99.90;;;;;;4980692;28;20663;-77
2022/02/15 06:25:37;;;;;;;8.50;3.30;;;8.30;99.90;;;;;;4976766;28;20189;-77
2022/02/15 06:28:03;;;;;;;3.85;2.85;;;8.30;99.90;;;;;;4979005;28;20197;-78
2022/02/15 06:30:29;;;;;;;4.28;2.42;;;8.20;99.90;;;;;;4978262;28;20180;-77
2022/02/15 06:32:56;;;;;;;5.30;2.50;;;8.20;99.90;;;;;;4978940;28;20265;-77
2022/02/15 06:35:25;;;;;;;3.22;2.28;;;8.10;99.90;;;;;;4983138;28;20623;-77
2022/02/15 06:37:51;;;;;;;6.55;2.10;;;8.00;99.90;;;;;;4983622;28;20204;-79
2022/02/15 06:40:18;;;;;;;8.30;2.33;;;8.00;99.90;;;;;;4981066;28;20170;-76
2022/02/15 06:42:45;;;;;;;8.43;2.00;;;8.00;99.90;;;;;;4963379;28;20182;-76
2022/02/15 06:45:12;;;;;;;10.18;1.98;;;7.70;99.90;;;;;;4983699;28;20166;-78
2022/02/15 06:47:37;;;;;;;3.05;2.10;;;7.70;99.90;;;;;;4981887;28;20229;-80
2022/02/15 06:50:04;;;;;;;5.63;2.17;;;7.60;99.90;;;;;;4980988;28;20244;-83
2022/02/15 06:52:30;;;;;;;8.73;1.98;;;7.70;99.90;;;;;;4983468;28;20170;-83
2022/02/15 06:54:56;;;;;;;3.75;1.73;;;7.80;99.90;;;;;;4984043;28;20196;-77
2022/02/15 06:57:21;;;;;;;3.85;2.05;;;7.90;99.90;;;;;;4982079;28;20173;-76
2022/02/15 06:59:48;;;;;;;6.15;2.03;;;7.80;99.90;;;;;;4982078;28;20173;-79
2022/02/15 07:02:14;;;;;;;2.47;1.67;;;7.90;99.90;;;;;;4983786;28;20300;-77
2022/02/15 07:04:39;;;;;;;4.43;1.90;;;7.70;99.90;;;;;;4985257;28;20186;-77
2022/02/15 07:07:05;;;;;;;3.45;1.80;;;7.70;99.90;;;;;;4983066;28;20178;-78
2022/02/15 07:09:31;;;;;;;4.38;2.53;;;7.70;99.90;;;;;;4977167;28;20173;-78
2022/02/15 07:11:57;;;;;;;3.65;2.38;;;7.80;99.90;;;;;;4980291;28;20176;-76
2022/02/15 07:14:22;;;;;;;2.97;2.25;;;7.80;99.90;;;;;;4976781;28;20186;-78
2022/02/15 07:16:48;;;;;;;6.70;2.17;;;7.80;99.90;;;;;;4976375;28;20286;-79
2022/02/15 07:19:14;;;;;;;9.02;2.00;;;7.80;99.90;;;;;;4975267;28;20166;-79
2022/02/15 07:21:42;;;;;;;4.45;2.28;;;7.80;99.90;;;;;;4975458;28;20205;-83
2022/02/15 07:24:08;;;;;;;3.50;2.28;;;7.70;99.90;;;;;;4975482;28;20272;-76
2022/02/15 07:26:33;;;;;;;3.53;1.75;;;7.50;99.90;;;;;;4976241;28;20521;-77
2022/02/15 07:28:59;;;;;;;9.25;2.20;;;7.50;99.90;;;;;;4975617;28;20186;-77
2022/02/15 07:31:25;;;;;;;5.45;1.92;;;7.50;99.90;;;;;;4975446;28;20189;-76
2022/02/15 07:33:50;;;;;;;5.75;2.20;;;7.70;99.90;;;;;;4975608;28;20193;-76
2022/02/15 07:36:16;;;;;;;7.60;2.67;;;7.60;99.90;;;;;;4975333;28;20216;-80
2022/02/15 07:38:42;;;;;;;8.57;2.38;;;7.50;99.90;;;;;;4974808;28;20253;-77
2022/02/15 07:41:08;;;;;;;3.95;1.90;;;7.50;99.90;;;;;;4975195;28;20233;-77
2022/02/15 07:43:33;;;;;;;7.15;2.60;;;7.60;99.90;;;;;;4975431;28;20197;-88
2022/02/15 07:45:59;;;;;;;4.05;2.00;;;7.70;99.90;;;;;;4975369;28;20585;-85
2022/02/15 07:48:24;;;;;;;6.53;2.40;;;7.90;99.90;;;;;;4975074;28;20602;-77
2022/02/15 07:50:50;;;;;;;4.97;1.80;;;7.90;99.90;;;;;;4978600;28;20253;-77
2022/02/15 07:53:16;;;;;;;7.38;2.22;;;7.90;99.90;;;;;;4975312;28;20190;-77
2022/02/15 07:55:41;;;;;;;2.95;1.73;;;8.00;99.90;;;;;;4957723;28;20201;-88
2022/02/15 07:58:08;;;;;;;7.82;1.73;;;7.70;99.90;;;;;;4989366;28;20237;-78
2022/02/15 08:00:35;;;;;;;16.73;2.83;;;7.70;99.90;;;;;;4978740;28;20181;-77
2022/02/15 08:03:01;;;;;;;30.63;3.10;;;7.60;99.90;;;;;;4982046;28;20190;-87
2022/02/15 08:05:28;;;;;;;16.90;2.35;;;7.50;99.90;;;;;;4980544;28;20551;-79
2022/02/15 08:07:56;;;;;;;7.07;2.58;;;7.60;99.90;;;;;;4977895;28;20174;-85
2022/02/15 08:10:23;;;;;;;3.83;1.83;;;7.70;99.90;;;;;;4978658;28;20182;-90
2022/02/15 08:12:57;;;;;;;5.68;1.63;;;7.70;99.90;;;;;;4979540;28;20181;-78
2022/02/15 08:15:28;;;;;;;4.82;1.50;;;7.70;99.90;;;;;;4978671;28;20162;-82
2022/02/15 08:17:55;;;;;;;8.23;2.10;;;7.60;99.90;;;;;;4977173;28;20170;-87
2022/02/15 08:20:24;;;;;;;1.67;1.08;;;7.70;99.90;;;;;;4989175;28;20165;-85
2022/02/15 08:22:51;;;;;;;7.28;1.40;;;7.70;99.90;;;;;;4983517;28;20170;-79
2022/02/15 08:25:20;;;;;;;6.13;1.38;;;7.60;99.90;;;;;;4982158;28;20196;-85
2022/02/15 08:27:46;;;;;;;8.27;1.70;;;7.60;99.90;;;;;;4979801;28;20216;-77
2022/02/15 08:30:13;;;;;;;11.48;1.67;;;7.80;99.90;;;;;;4973913;28;20169;-84
2022/02/15 08:32:39;;;;;;;5.47;1.25;;;7.60;99.90;;;;;;4978253;28;20175;-78
2022/02/15 08:35:06;;;;;;;3.67;2.03;;;7.70;99.90;;;;;;4982102;28;20192;-76
2022/02/15 08:37:33;;;;;;;1.52;1.15;;;7.60;99.90;;;;;;4977747;28;20178;-80
2022/02/15 08:40:00;;;;;;;12.63;1.50;;;7.60;99.90;;;;;;4980584;28;20173;-78
2022/02/15 08:42:27;;;;;;;8.35;2.17;;;7.90;99.90;;;;;;4963423;28;20202;-86
2022/02/15 08:44:53;;;;;;;4.82;1.58;;;8.00;99.90;;;;;;4979943;28;20189;-79
2022/02/15 08:47:21;;;;;;;11.20;1.75;;;8.00;99.90;;;;;;4978402;28;20188;-76
2022/02/15 08:49:50;;;;;;;3.35;2.00;;;7.90;99.90;;;;;;4979907;28;20173;-78
2022/02/15 08:52:15;;;;;;;9.68;1.83;;;8.00;99.90;;;;;;4976563;28;20177;-76
2022/02/15 08:54:41;;;;;;;9.80;1.67;;;8.00;99.90;;;;;;4975330;28;20597;-82
2022/02/15 08:57:06;;;;;;;2.40;1.58;;;8.00;99.90;;;;;;4973518;28;20583;-85
2022/02/15 08:59:32;;;;;;;2.55;1.08;;;8.10;99.90;;;;;;4975005;28;20590;-85
2022/02/15 09:01:58;;;;;;;9.48;1.60;;;8.00;99.90;;;;;;4976080;28;20209;-79
2022/02/15 09:04:23;;;;;;;3.50;1.70;;;7.90;99.90;;;;;;4986480;28;20196;-80
2022/02/15 09:06:51;;;;;;;8.77;1.52;;;8.00;99.90;;;;;;4987164;28;20181;-77
2022/02/15 09:09:18;;;;;;;5.13;1.70;;;8.10;99.90;;;;;;4959204;28;20533;-80
2022/02/15 09:11:45;;;;;;;10.98;2.03;;;8.00;99.90;;;;;;4980759;28;20181;-81
2022/02/15 09:14:14;;;;;;;13.05;1.75;;;8.10;99.90;;;;;;4971379;28;20295;-75
2022/02/15 09:16:41;;;;;;;6.40;1.35;;;8.00;99.90;;;;;;4978627;28;20256;-82
2022/02/15 09:19:06;;;;;;;3.67;1.45;;;8.00;99.90;;;;;;4975172;28;20166;-86
2022/02/15 09:21:35;;;;;;;6.43;2.03;;;8.20;99.90;;;;;;4952842;29;20272;-83
2022/02/15 09:24:02;;;;;;;8.52;2.28;;;8.00;99.90;;;;;;4953610;28;20179;-77
2022/02/15 09:26:27;;;;;;;4.95;1.75;;;8.00;99.90;;;;;;4973655;28;20182;-88
2022/02/15 09:28:53;;;;;;;6.15;2.78;;;8.00;99.90;;;;;;4972989;28;20177;-86
2022/02/15 09:31:19;;;;;;;4.75;1.40;;;8.00;99.90;;;;;;4974416;28;20166;-85
2022/02/15 09:33:46;;;;;;;4.82;2.47;;;8.00;99.90;;;;;;4975637;28;20190;-90
2022/02/15 09:36:12;;;;;;;5.05;1.80;;;8.20;99.90;;;;;;4973960;28;20264;-87
2022/02/15 09:38:38;;;;;;;11.93;1.77;;;8.30;99.90;;;;;;4974515;28;20667;-85
2022/02/15 09:41:07;;;;;;;3.97;1.42;;;8.30;99.90;;;;;;4974384;28;20600;-84
2022/02/15 09:43:36;;;;;;;1.40;1.15;;;8.30;99.90;;;;;;4972454;28;20186;-83
2022/02/15 09:46:02;;;;;;;3.30;1.90;;;8.40;99.90;;;;;;4970209;28;20180;-75
2022/02/15 09:48:29;;;;;;;5.22;1.60;;;8.30;99.90;;;;;;4968094;28;20182;-88
2022/02/15 09:50:55;;;;;;;6.35;1.63;;;8.30;99.90;;;;;;4979442;28;20189;-76
2022/02/15 09:53:21;;;;;;;7.43;1.55;;;8.40;99.90;;;;;;4981013;28;20754;-82
2022/02/15 09:55:49;;;;;;;2.15;1.13;;;8.50;99.90;;;;;;4989399;28;20170;-75
2022/02/15 09:58:15;;;;;;;6.28;2.10;;;8.50;99.90;;;;;;4987566;28;20150;-75
2022/02/15 10:00:44;;;;;;;6.63;1.50;;;8.50;99.90;;;;;;4978815;28;20197;-82
2022/02/15 10:03:10;;;;;;;6.72;2.13;;;8.40;99.90;;;;;;4979733;28;20202;-75
2022/02/15 10:05:52;;;;;;;5.45;1.90;;;8.60;99.90;;;;;;4980547;28;20181;-83
2022/02/15 10:08:26;;;;;;;9.82;1.75;;;8.70;99.90;;;;;;4972919;28;20178;-75
2022/02/15 10:10:52;;;;;;;7.32;1.33;;;8.70;99.90;;;;;;4981172;28;20170;-87
2022/02/15 10:13:17;;;;;;;5.22;2.00;;;8.60;99.90;;;;;;4981994;28;20249;-76
2022/02/15 10:15:48;;;;;;;7.50;2.10;;;8.70;99.90;;;;;;4983572;28;20647;-77
2022/02/15 10:18:25;;;;;;;2.30;1.17;;;8.80;99.90;;;;;;4966430;28;20174;-76
2022/02/15 10:20:55;;;;;;;9.65;1.77;;;8.80;99.90;;;;;;4971925;28;20205;-75
2022/02/15 10:23:24;;;;;;;8.82;1.85;;;8.90;99.90;;;;;;4961347;28;20209;-76
2022/02/15 10:25:51;;;;;;;5.78;1.83;;;8.90;99.90;;;;;;4975802;28;20172;-77
2022/02/15 10:28:20;;;;;;;8.50;2.13;;;9.10;99.90;;;;;;4975758;28;20613;-76
2022/02/15 10:30:54;;;;;;;8.65;1.65;;;9.10;99.90;;;;;;4975992;28;20177;-75
2022/02/15 10:33:26;;;;;;;4.70;1.48;;;9.00;99.90;;;;;;4959301;28;20198;-76
2022/02/15 10:36:06;;;;;;;9.18;2.05;;;9.00;99.90;;;;;;4982078;28;20178;-78
2022/02/15 10:38:44;;;;;;;7.50;2.40;;;9.10;99.90;;;;;;4995689;28;20178;-76
2022/02/15 10:41:15;;;;;;;13.13;1.88;;;9.20;99.90;;;;;;4980652;28;20205;-80
2022/02/15 10:43:54;;;;;;;11.18;1.88;;;9.20;99.90;;;;;;4977573;28;20610;-76
2022/02/15 10:46:25;;;;;;;7.75;1.83;;;9.30;99.90;;;;;;4977304;28;20658;-88
2022/02/15 10:48:52;;;;;;;4.95;1.35;;;9.40;99.90;;;;;;4976273;28;20174;-79
2022/02/15 10:51:19;;;;;;;4.60;1.23;;;9.30;99.90;;;;;;4977319;28;20178;-85
2022/02/15 10:53:45;;;;;;;4.55;1.45;;;9.30;99.90;;;;;;4975728;28;20224;-76
2022/02/15 10:56:11;;;;;;;6.68;1.85;;;9.40;99.90;;;;;;4976826;28;20209;-76
2022/02/15 10:58:37;;;;;;;9.80;2.85;;;9.40;99.90;;;;;;4959520;28;20169;-89
2022/02/15 11:01:07;;;;;;;6.65;1.58;;;9.40;99.90;;;;;;4976733;28;20202;-76
2022/02/15 11:03:35;;;;;;;6.85;2.08;;;9.40;99.90;;;;;;4976667;28;20240;-76
2022/02/15 11:06:02;;;;;;;4.97;1.33;;;9.50;99.90;;;;;;4976657;28;20265;-79
2022/02/15 11:08:29;;;;;;;12.95;2.25;;;9.50;99.90;;;;;;4976630;28;20174;-89
2022/02/15 11:11:18;;;;;;;7.70;1.42;;;9.50;99.90;;;;;;4977241;28;20176;-83
2022/02/15 11:13:45;;;;;;;7.82;1.73;;;9.40;99.90;;;;;;4975685;28;20237;-83
2022/02/15 11:16:19;;;;;;;3.67;1.83;;;9.50;99.90;;;;;;4976089;28;20170;-78
2022/02/15 11:18:45;;;;;;;6.97;1.58;;;9.50;99.90;;;;;;4976432;28;20657;-75
2022/02/15 11:21:27;;;;;;;5.38;1.50;;;9.50;99.90;;;;;;4976523;28;20202;-76
2022/02/15 11:23:58;;;;;;;4.05;1.80;;;9.50;99.90;;;;;;4976264;28;20545;-76
2022/02/15 11:26:35;;;;;;;6.78;1.60;;;9.50;99.90;;;;;;4976443;28;20170;-88
2022/02/15 11:29:03;;;;;;;9.32;2.15;;;9.50;99.90;;;;;;4976268;28;20186;-87
2022/02/15 11:31:39;;;;;;;3.97;1.73;;;9.70;99.90;;;;;;4976470;28;20301;-79
2022/02/15 11:34:07;;;;;;;5.97;1.42;;;9.90;99.90;;;;;;4976122;28;20642;-87
2022/02/15 11:36:44;;;;;;;5.78;1.50;;;10.00;99.90;;;;;;4976064;28;20166;-81
2022/02/15 11:39:19;;;;;;;7.35;1.20;;;10.20;99.90;;;;;;4972101;28;20174;-77
2022/02/15 11:41:48;;;;;;;6.95;1.85;;;10.50;99.90;;;;;;4975334;28;20674;-76
2022/02/15 11:44:14;;;;;;;6.35;1.40;;;10.50;99.90;;;;;;4974788;28;20189;-77
2022/02/15 11:46:43;;;;;;;7.38;1.45;;;10.50;99.90;;;;;;4975431;28;20178;-81
2022/02/15 11:49:10;;;;;;;13.05;2.05;;;10.40;99.90;;;;;;4975963;28;20256;-77
2022/02/15 11:51:37;;;;;;;7.80;1.70;;;10.40;99.90;;;;;;4964367;28;20244;-77
2022/02/15 11:54:04;;;;;;;4.65;1.50;;;10.50;99.90;;;;;;4975882;28;20244;-88
2022/02/15 11:56:30;;;;;;;3.25;1.23;;;10.70;99.90;;;;;;4974934;28;20190;-83
2022/02/15 11:58:57;;;;;;;6.47;1.42;;;10.70;99.90;;;;;;4974419;28;20193;-88
2022/02/15 12:01:30;;;;;;;11.57;1.52;;;10.50;99.90;;;;;;4974296;28;20681;-86
2022/02/15 12:04:00;;;;;;;4.32;1.85;;;10.40;99.90;;;;;;4971075;28;20256;-87
2022/02/15 12:06:39;;;;;;;10.30;1.75;;;10.60;99.90;;;;;;4975840;28;20165;-87
2022/02/15 12:09:05;;;;;;;6.68;1.50;;;10.60;99.90;;;;;;4975413;28;20201;-78
2022/02/15 12:11:44;;;;;;;5.80;1.10;;;10.70;99.90;;;;;;4973790;28;20200;-82
2022/02/15 12:14:17;;;;;;;6.57;1.38;;;10.60;99.90;;;;;;4974023;28;20205;-87
2022/02/15 12:16:48;;;;;;;6.45;1.35;;;10.50;99.90;;;;;;4974193;28;20177;-78
2022/02/15 12:19:33;;;;;;;8.65;1.77;;;10.50;99.90;;;;;;4974186;28;20178;-77
2022/02/15 12:21:59;;;;;;;9.02;1.70;;;10.50;99.90;;;;;;4974354;28;20197;-81
2022/02/15 12:24:25;;;;;;;9.25;1.40;;;10.70;99.90;;;;;;4974485;28;20264;-77
2022/02/15 12:26:53;;;;;;;5.93;1.42;;;10.60;99.90;;;;;;4975689;28;20276;-77
2022/02/15 12:29:18;;;;;;;11.02;1.73;;;10.50;99.90;;;;;;4974821;28;20174;-76
2022/02/15 12:31:44;;;;;;;11.10;2.17;;;10.60;99.90;;;;;;4974549;28;20162;-88
2022/02/15 12:34:11;;;;;;;10.70;1.45;;;10.70;99.90;;;;;;4974481;28;20332;-89
2022/02/15 12:36:38;;;;;;;7.35;1.65;;;10.90;99.90;;;;;;4974935;28;20639;-87
2022/02/15 12:39:06;;;;;;;10.05;1.48;;;11.00;99.90;;;;;;4975103;28;20269;-76
2022/02/15 12:41:36;;;;;;;6.38;1.58;;;11.10;99.90;;;;;;4973580;28;20217;-76
2022/02/15 12:44:03;;;;;;;4.05;1.00;;;11.00;99.90;;;;;;4973721;28;20211;-85
2022/02/15 12:46:28;;;;;;;14.50;1.27;;;11.00;99.90;;;;;;4974119;28;20511;-85
2022/02/15 12:49:02;;;;;;;5.55;1.95;;;11.00;99.90;;;;;;4975084;28;20237;-88
2022/02/15 12:51:31;;;;;;;5.25;1.45;;;11.10;99.90;;;;;;4975000;28;20173;-76
2022/02/15 12:53:58;;;;;;;4.78;1.35;;;11.10;99.90;;;;;;4974482;28;20181;-77
2022/02/15 12:56:30;;;;;;;6.35;1.30;;;11.30;99.90;;;;;;4974164;28;20197;-80
2022/02/15 12:59:04;;;;;;;3.85;1.00;;;11.30;99.90;;;;;;4974579;28;20173;-87
2022/02/15 13:01:33;;;;;;;9.80;1.52;;;11.30;99.90;;;;;;4974370;28;20205;-76